Time;durP1;ratioP1;P1;durP2;ratioP2;P2;SDS_P1;SDS_P2;PMS_P1;PMS_P2;Temp;Humidity;BMP_temperature;BMP_pressure;BME280_temperature;BME280_humidity;BME280_pressure;Samples;Min_cycle;Max_cycle;Signal;HPM_P1;HPM_P2
2022/06/17 00:02:12;;;;;;;10.63;5.93;;;17.20;82.80;;;;;;5013735;28;20487;-55
2022/06/17 00:04:38;;;;;;;8.82;5.50;;;17.10;83.60;;;;;;5014033;28;20137;-57
2022/06/17 00:07:07;;;;;;;11.20;6.28;;;17.00;84.80;;;;;;5014131;28;20494;-58
2022/06/17 00:09:35;;;;;;;10.32;6.15;;;17.00;83.60;;;;;;5014020;28;20037;-59
2022/06/17 00:12:02;;;;;;;9.27;5.80;;;17.00;85.40;;;;;;5013078;28;20049;-54
2022/06/17 00:14:33;;;;;;;8.65;5.70;;;16.90;86.40;;;;;;5000218;28;20053;-57
2022/06/17 00:17:07;;;;;;;9.88;7.05;;;16.80;86.50;;;;;;5013381;28;20420;-52
2022/06/17 00:19:33;;;;;;;10.65;7.13;;;16.80;85.70;;;;;;5013535;28;20422;-53
2022/06/17 00:22:00;;;;;;;9.48;7.03;;;16.80;85.30;;;;;;5013277;28;20108;-54
2022/06/17 00:24:30;;;;;;;13.10;7.68;;;16.70;85.80;;;;;;5012309;28;20050;-57
2022/06/17 00:26:56;;;;;;;;;;;16.70;85.60;;;;;;5013980;28;20038;-52
2022/06/17 00:29:24;;;;;;;11.05;7.10;;;16.70;86.20;;;;;;5013371;28;20008;-51
2022/06/17 00:31:50;;;;;;;10.27;6.35;;;16.70;85.90;;;;;;5013002;28;20066;-61
2022/06/17 00:34:16;;;;;;;8.45;6.40;;;16.60;86.40;;;;;;5013336;28;20065;-50
2022/06/17 00:36:43;;;;;;;10.68;6.25;;;16.60;86.20;;;;;;5013495;28;20033;-51
2022/06/17 00:39:19;;;;;;;8.40;6.30;;;16.50;87.50;;;;;;5013196;28;20038;-56
2022/06/17 00:41:48;;;;;;;9.45;6.32;;;16.50;87.50;;;;;;5012296;28;20563;-57
2022/06/17 00:44:42;;;;;;;10.77;7.13;;;16.50;87.80;;;;;;5013169;28;20021;-54
2022/06/17 00:47:19;;;;;;;10.20;6.63;;;16.40;87.20;;;;;;5013089;28;20022;-57
2022/06/17 00:49:45;;;;;;;9.85;6.55;;;16.40;87.50;;;;;;5013274;28;20025;-57
2022/06/17 00:52:25;;;;;;;10.70;7.43;;;16.40;88.00;;;;;;5012729;28;20022;-62
2022/06/17 00:54:59;;;;;;;10.98;7.80;;;16.30;87.90;;;;;;5013136;28;20041;-58
2022/06/17 00:57:38;;;;;;;9.60;7.55;;;16.30;87.50;;;;;;5012920;28;20378;-55
2022/06/17 01:00:17;;;;;;;12.60;7.07;;;16.20;88.00;;;;;;5013122;28;20032;-58
2022/06/17 01:02:48;;;;;;;;;;;16.20;88.80;;;;;;4999378;28;20371;-55
2022/06/17 01:05:16;;;;;;;11.68;7.20;;;16.20;88.30;;;;;;5012899;28;20004;-57
2022/06/17 01:08:12;;;;;;;10.77;7.25;;;16.20;87.90;;;;;;5012997;28;20025;-56
2022/06/17 01:10:42;;;;;;;12.15;8.15;;;16.10;86.80;;;;;;5012017;28;20041;-57
2022/06/17 01:13:08;;;;;;;;;;;16.10;85.70;;;;;;5013224;28;20021;-58
2022/06/17 01:15:37;;;;;;;9.82;7.20;;;16.10;85.90;;;;;;5012639;28;19909;-54
2022/06/17 01:18:04;;;;;;;12.43;7.28;;;16.10;86.80;;;;;;5013161;28;20026;-53
2022/06/17 01:20:31;;;;;;;12.35;7.38;;;16.10;87.50;;;;;;5012264;28;20113;-56
2022/06/17 01:23:07;;;;;;;8.13;6.70;;;16.10;88.00;;;;;;5012402;28;20508;-59
2022/06/17 01:25:39;;;;;;;9.27;6.50;;;16.10;88.20;;;;;;5012501;28;20026;-55
2022/06/17 01:28:08;;;;;;;8.50;6.85;;;16.00;88.40;;;;;;5011621;28;20022;-58
2022/06/17 01:30:36;;;;;;;9.50;7.50;;;16.00;88.20;;;;;;5010913;28;20393;-56
2022/06/17 01:33:28;;;;;;;9.95;7.03;;;16.00;86.40;;;;;;5011856;28;20029;-57
2022/06/17 01:36:00;;;;;;;10.52;7.07;;;16.00;86.90;;;;;;5009271;28;20042;-56
2022/06/17 01:38:28;;;;;;;12.20;6.85;;;16.00;87.30;;;;;;5012207;28;20022;-52
2022/06/17 01:40:56;;;;;;;10.13;7.10;;;16.00;87.80;;;;;;5012096;28;20026;-58
2022/06/17 01:43:26;;;;;;;8.60;7.53;;;16.00;87.30;;;;;;5012135;28;20374;-58
2022/06/17 01:45:59;;;;;;;10.57;7.80;;;16.00;88.10;;;;;;5012102;28;20431;-55
2022/06/17 01:48:28;;;;;;;13.38;8.10;;;16.00;87.60;;;;;;5011938;28;20033;-54
2022/06/17 01:50:57;;;;;;;9.50;7.88;;;16.00;87.20;;;;;;5011689;28;20018;-54
2022/06/17 01:53:27;;;;;;;9.82;7.07;;;16.00;85.80;;;;;;5011948;28;20172;-57
2022/06/17 01:56:00;;;;;;;9.80;6.32;;;15.90;86.30;;;;;;5012103;28;20029;-55
2022/06/17 01:58:34;;;;;;;8.57;6.90;;;15.90;85.80;;;;;;5011980;28;20076;-54
2022/06/17 02:01:01;;;;;;;9.63;6.53;;;15.90;87.30;;;;;;5011325;28;20028;-54
2022/06/17 02:03:32;;;;;;;7.97;6.43;;;15.90;87.90;;;;;;5012006;28;20029;-59
2022/06/17 02:06:14;;;;;;;10.02;6.90;;;15.80;88.70;;;;;;5010681;28;20026;-54
2022/06/17 02:08:40;;;;;;;8.32;6.70;;;15.70;88.90;;;;;;5011503;28;20156;-58
2022/06/17 02:11:07;;;;;;;10.45;6.82;;;15.70;89.10;;;;;;5011315;28;20132;-60
2022/06/17 02:13:34;;;;;;;8.75;5.97;;;15.60;89.70;;;;;;5011350;28;20161;-55
2022/06/17 02:16:02;;;;;;;9.55;5.78;;;15.60;90.30;;;;;;5011528;28;20484;-57
2022/06/17 02:18:28;;;;;;;11.88;5.75;;;15.60;90.10;;;;;;5011843;28;20034;-54
2022/06/17 02:20:57;;;;;;;7.75;5.78;;;15.60;90.50;;;;;;5011060;28;20036;-57
2022/06/17 02:23:26;;;;;;;6.43;4.72;;;15.60;90.70;;;;;;5011727;28;20687;-57
2022/06/17 02:25:54;;;;;;;7.80;5.20;;;15.50;90.60;;;;;;5011449;28;20076;-58
2022/06/17 02:28:21;;;;;;;5.50;4.90;;;15.50;90.80;;;;;;5011486;28;20485;-59
2022/06/17 02:30:48;;;;;;;7.82;4.75;;;15.50;90.90;;;;;;5010140;28;20100;-59
2022/06/17 02:33:15;;;;;;;6.60;5.03;;;15.40;90.90;;;;;;5011417;28;20504;-54
2022/06/17 02:35:59;;;;;;;8.50;5.50;;;15.30;91.00;;;;;;5011474;28;20018;-57
2022/06/17 02:38:28;;;;;;;7.80;5.00;;;15.30;91.00;;;;;;4998827;28;20154;-55
2022/06/17 02:41:00;;;;;;;8.87;5.30;;;15.20;91.30;;;;;;5009757;28;20033;-54
2022/06/17 02:43:32;;;;;;;6.97;4.95;;;15.10;91.50;;;;;;5011533;28;20029;-56
2022/06/17 02:46:25;;;;;;;6.35;5.03;;;15.10;91.40;;;;;;5011337;28;20036;-55
2022/06/17 02:48:58;;;;;;;7.20;5.00;;;15.10;91.60;;;;;;5011060;28;20034;-63
2022/06/17 02:51:27;;;;;;;10.20;5.45;;;15.00;91.80;;;;;;5010843;28;20099;-58
2022/06/17 02:53:53;;;;;;;7.00;5.13;;;14.90;92.00;;;;;;5011050;28;20033;-57
2022/06/17 02:56:27;;;;;;;7.47;5.78;;;14.90;92.10;;;;;;5010043;28;20492;-54
2022/06/17 02:59:16;;;;;;;8.45;5.43;;;14.90;92.00;;;;;;5011184;28;20381;-58
2022/06/17 03:01:43;;;;;;;9.68;5.63;;;14.80;92.10;;;;;;5010516;28;20508;-53
2022/06/17 03:04:19;;;;;;;8.48;5.45;;;14.80;92.00;;;;;;5009561;28;20033;-54
2022/06/17 03:06:47;;;;;;;7.88;5.25;;;14.80;92.20;;;;;;5011091;28;20102;-57
2022/06/17 03:09:23;;;;;;;7.65;5.45;;;14.80;92.30;;;;;;5010624;28;20033;-58
2022/06/17 03:12:20;;;;;;;7.82;5.20;;;14.80;92.40;;;;;;5003043;28;20115;-62
2022/06/17 03:14:49;;;;;;;8.57;5.50;;;14.80;92.50;;;;;;5009918;28;20041;-55
2022/06/17 03:17:17;;;;;;;;;;;14.80;92.50;;;;;;5011382;28;20026;-55
2022/06/17 03:19:45;;;;;;;9.00;4.60;;;14.80;92.40;;;;;;5009409;28;19909;-57
2022/06/17 03:22:13;;;;;;;6.90;4.72;;;14.70;92.50;;;;;;5010989;28;20478;-57
2022/06/17 03:24:43;;;;;;;5.88;4.88;;;14.70;92.60;;;;;;5010884;28;20018;-55
2022/06/17 03:27:34;;;;;;;6.10;4.80;;;14.70;92.80;;;;;;5010872;28;20036;-57
2022/06/17 03:30:01;;;;;;;6.38;5.10;;;14.70;93.10;;;;;;4998707;28;20026;-58
2022/06/17 03:32:32;;;;;;;7.53;4.78;;;14.60;93.00;;;;;;5010948;28;20020;-59
2022/06/17 03:34:57;;;;;;;8.50;5.32;;;14.60;93.10;;;;;;5010925;28;20494;-57
2022/06/17 03:37:49;;;;;;;9.30;5.30;;;14.50;93.00;;;;;;5010532;28;20122;-57
2022/06/17 03:40:21;;;;;;;6.50;4.82;;;14.50;92.70;;;;;;5008470;28;20084;-53
2022/06/17 03:43:19;;;;;;;7.05;5.22;;;14.40;93.00;;;;;;5010818;28;20123;-55
2022/06/17 03:45:56;;;;;;;6.10;4.55;;;14.50;92.90;;;;;;4999323;28;20128;-57
2022/06/17 03:48:30;;;;;;;6.75;4.70;;;14.40;92.70;;;;;;5010634;28;20141;-61
2022/06/17 03:50:56;;;;;;;6.00;4.45;;;14.50;93.10;;;;;;5010599;28;20053;-49
2022/06/17 03:53:29;;;;;;;6.60;4.82;;;14.50;93.20;;;;;;5014313;28;20716;-60
2022/06/17 03:56:02;;;;;;;5.80;4.88;;;14.40;93.40;;;;;;5014181;28;20022;-59
2022/06/17 03:58:28;;;;;;;5.78;4.63;;;14.30;93.60;;;;;;5012910;28;20048;-57
2022/06/17 04:01:01;;;;;;;12.25;4.70;;;14.30;93.20;;;;;;5013487;28;20604;-58
2022/06/17 04:03:32;;;;;;;6.22;4.70;;;14.20;93.30;;;;;;5014091;28;20026;-60
2022/06/17 04:06:02;;;;;;;9.68;4.95;;;14.20;93.20;;;;;;5013968;28;20080;-55
2022/06/17 04:08:27;;;;;;;7.53;5.10;;;14.20;93.50;;;;;;5013823;28;20080;-55
2022/06/17 04:10:53;;;;;;;9.23;4.93;;;14.20;93.30;;;;;;5013630;28;20070;-52
2022/06/17 04:13:25;;;;;;;5.60;4.45;;;14.20;93.20;;;;;;5013967;28;20065;-54
2022/06/17 04:15:59;;;;;;;6.78;4.63;;;14.30;93.00;;;;;;5014005;28;20029;-55
2022/06/17 04:18:24;;;;;;;8.95;5.10;;;14.30;93.10;;;;;;5013365;28;20552;-56
2022/06/17 04:20:54;;;;;;;5.47;4.35;;;14.40;93.10;;;;;;5002643;28;20117;-53
2022/06/17 04:23:25;;;;;;;7.05;4.65;;;14.40;92.90;;;;;;4995838;28;20026;-53
2022/06/17 04:26:03;;;;;;;7.72;5.15;;;14.40;93.00;;;;;;4996492;28;20026;-56
2022/06/17 04:28:43;;;;;;;6.40;4.80;;;14.50;92.80;;;;;;4999158;28;20106;-55
2022/06/17 04:31:18;;;;;;;6.40;4.57;;;14.60;92.50;;;;;;5010092;28;20030;-52
2022/06/17 04:34:07;;;;;;;6.43;4.90;;;14.60;92.40;;;;;;5001903;28;20092;-52
2022/06/17 04:36:40;;;;;;;8.70;5.05;;;14.70;92.50;;;;;;5004185;28;20474;-60
2022/06/17 04:39:11;;;;;;;6.97;4.45;;;14.80;92.60;;;;;;4997556;28;20362;-57
2022/06/17 04:41:39;;;;;;;8.00;4.57;;;14.90;92.60;;;;;;5011975;28;20045;-49
2022/06/17 04:44:06;;;;;;;7.25;5.00;;;14.90;93.50;;;;;;5012617;28;20029;-54
2022/06/17 04:46:36;;;;;;;6.13;4.22;;;15.00;93.70;;;;;;5012041;28;20017;-49
2022/06/17 04:49:04;;;;;;;5.30;4.20;;;15.20;92.50;;;;;;5012775;28;20084;-53
2022/06/17 04:51:33;;;;;;;5.75;4.20;;;15.40;92.40;;;;;;5013154;28;20481;-53
2022/06/17 04:53:59;;;;;;;8.27;4.00;;;15.50;92.70;;;;;;5012998;28;20037;-58
2022/06/17 04:56:39;;;;;;;6.45;4.05;;;15.60;91.90;;;;;;5012692;28;20105;-52
2022/06/17 04:59:28;;;;;;;6.00;3.80;;;15.90;91.30;;;;;;5013042;28;20097;-56
2022/06/17 05:01:54;;;;;;;4.37;3.80;;;16.10;91.10;;;;;;5012672;28;20029;-60
2022/06/17 05:04:20;;;;;;;4.72;3.78;;;16.30;90.60;;;;;;5011567;28;20251;-50
2022/06/17 05:06:46;;;;;;;5.75;3.90;;;16.40;90.00;;;;;;5011684;28;20021;-52
2022/06/17 05:09:29;;;;;;;6.95;3.75;;;16.50;90.10;;;;;;5011740;28;20042;-53
2022/06/17 05:12:01;;;;;;;5.38;3.80;;;16.60;89.90;;;;;;5010318;28;20557;-55
2022/06/17 05:14:46;;;;;;;7.15;3.88;;;16.80;88.30;;;;;;5011819;28;20029;-53
2022/06/17 05:17:12;;;;;;;6.95;3.90;;;16.90;86.50;;;;;;5003646;28;20030;-58
2022/06/17 05:19:38;;;;;;;7.50;3.90;;;17.00;86.20;;;;;;5012506;28;20026;-58
2022/06/17 05:22:30;;;;;;;8.43;3.90;;;17.10;87.20;;;;;;5012184;28;20036;-52
2022/06/17 05:24:55;;;;;;;6.60;3.78;;;17.10;88.80;;;;;;5012449;28;20026;-55
2022/06/17 05:27:21;;;;;;;6.32;3.95;;;17.10;86.90;;;;;;5012493;28;20033;-57
2022/06/17 05:29:46;;;;;;;10.18;4.20;;;17.10;88.40;;;;;;5012533;28;20061;-56
2022/06/17 05:32:16;;;;;;;5.85;3.58;;;16.90;88.00;;;;;;5012133;28;20022;-57
2022/06/17 05:34:42;;;;;;;7.28;3.65;;;16.90;89.80;;;;;;5012499;28;20107;-58
2022/06/17 05:37:08;;;;;;;7.47;3.83;;;16.90;89.70;;;;;;5011946;28;20470;-60
2022/06/17 05:39:33;;;;;;;5.40;3.83;;;17.00;90.20;;;;;;5011079;28;20080;-58
2022/06/17 05:41:59;;;;;;;7.80;3.95;;;17.10;88.80;;;;;;5012001;28;20033;-56
2022/06/17 05:44:25;;;;;;;7.88;4.32;;;17.20;87.70;;;;;;5012075;28;20052;-58
2022/06/17 05:46:51;;;;;;;7.75;4.75;;;17.40;90.20;;;;;;5011867;28;20397;-50
2022/06/17 05:49:16;;;;;;;6.68;4.35;;;17.60;86.40;;;;;;5011810;28;20077;-60
2022/06/17 05:51:42;;;;;;;7.13;5.05;;;18.00;83.10;;;;;;5012157;28;20018;-54
2022/06/17 05:54:08;;;;;;;7.32;5.20;;;18.50;82.90;;;;;;5009127;28;20105;-54
2022/06/17 05:56:33;;;;;;;7.72;5.13;;;19.00;81.30;;;;;;5007144;28;20472;-58
2022/06/17 05:58:59;;;;;;;8.98;4.93;;;19.50;74.90;;;;;;5010482;28;20025;-58
2022/06/17 06:01:25;;;;;;;6.43;4.50;;;19.90;73.50;;;;;;5008769;28;20097;-62
2022/06/17 06:03:50;;;;;;;7.40;5.38;;;20.40;74.80;;;;;;5011040;28;20485;-56
2022/06/17 06:06:16;;;;;;;7.38;4.78;;;21.10;71.30;;;;;;5010698;28;20381;-58
2022/06/17 06:08:42;;;;;;;8.90;5.38;;;21.50;74.80;;;;;;5011341;28;20400;-61
2022/06/17 06:11:07;;;;;;;9.63;4.75;;;21.80;70.60;;;;;;5011573;28;20401;-58
2022/06/17 06:13:33;;;;;;;7.25;5.35;;;22.00;71.40;;;;;;5009630;28;20105;-61
2022/06/17 06:16:00;;;;;;;8.10;5.70;;;22.20;70.70;;;;;;5009758;28;20033;-59
2022/06/17 06:18:31;;;;;;;8.13;5.72;;;22.60;68.40;;;;;;4996088;28;20049;-58
2022/06/17 06:20:57;;;;;;;9.63;7.00;;;23.10;66.80;;;;;;5009911;28;20032;-55
2022/06/17 06:23:23;;;;;;;10.75;6.90;;;23.50;64.50;;;;;;5009792;28;20022;-54
2022/06/17 06:25:49;;;;;;;10.50;7.13;;;24.10;66.10;;;;;;5009729;28;20018;-56
2022/06/17 06:28:19;;;;;;;12.27;8.25;;;24.20;64.50;;;;;;5010821;28;20026;-59
2022/06/17 06:30:51;;;;;;;8.65;6.50;;;24.50;64.60;;;;;;5011043;28;20040;-57
2022/06/17 06:33:17;;;;;;;11.50;7.20;;;24.80;64.70;;;;;;5011599;28;20080;-58
2022/06/17 06:35:43;;;;;;;9.48;6.90;;;25.00;63.40;;;;;;5011390;28;20416;-56
2022/06/17 06:38:08;;;;;;;11.23;7.65;;;25.00;64.10;;;;;;5011376;28;20036;-49
2022/06/17 06:40:35;;;;;;;9.85;7.20;;;25.10;63.80;;;;;;5011136;28;20389;-48
2022/06/17 06:43:01;;;;;;;13.00;7.75;;;25.20;66.30;;;;;;5011281;28;20540;-50
2022/06/17 06:45:31;;;;;;;11.13;7.50;;;25.60;63.20;;;;;;5011079;28;20049;-49
2022/06/17 06:47:59;;;;;;;10.93;7.50;;;25.50;62.50;;;;;;5010974;28;20076;-55
2022/06/17 06:50:27;;;;;;;10.63;7.35;;;25.70;64.20;;;;;;5011226;28;20022;-55
2022/06/17 06:52:53;;;;;;;12.18;8.88;;;26.00;64.10;;;;;;5011105;28;20481;-49
2022/06/17 06:55:19;;;;;;;11.73;7.70;;;26.40;61.60;;;;;;5010836;28;20044;-53
2022/06/17 06:57:49;;;;;;;12.20;8.88;;;26.30;60.40;;;;;;5010797;28;20076;-55
2022/06/17 07:00:18;;;;;;;12.85;8.98;;;25.80;61.90;;;;;;5011163;28;20030;-50
2022/06/17 07:02:44;;;;;;;13.80;9.20;;;25.20;62.10;;;;;;5010789;28;20397;-53
2022/06/17 07:05:10;;;;;;;14.10;9.18;;;24.60;66.40;;;;;;5010605;28;20029;-51
2022/06/17 07:07:36;;;;;;;12.95;9.15;;;24.60;67.90;;;;;;5011005;28;20022;-54
2022/06/17 07:10:01;;;;;;;10.95;8.75;;;25.00;67.90;;;;;;5010790;28;20018;-58
2022/06/17 07:12:27;;;;;;;13.35;8.73;;;25.40;65.40;;;;;;5010983;28;20077;-55
2022/06/17 07:14:53;;;;;;;11.45;8.35;;;25.90;63.50;;;;;;5010883;28;20101;-56
2022/06/17 07:17:18;;;;;;;10.23;8.07;;;26.10;61.60;;;;;;5010872;28;20096;-60
2022/06/17 07:19:44;;;;;;;11.65;8.02;;;25.90;61.70;;;;;;5010961;28;20062;-60
2022/06/17 07:22:09;;;;;;;11.95;7.55;;;26.00;62.90;;;;;;5010761;28;20034;-56
2022/06/17 07:24:36;;;;;;;12.30;7.22;;;26.20;62.30;;;;;;5011020;28;20034;-54
2022/06/17 07:27:01;;;;;;;13.90;7.07;;;26.30;61.70;;;;;;5012656;28;20481;-54
2022/06/17 07:29:27;;;;;;;8.45;6.68;;;26.60;62.40;;;;;;5014690;28;20044;-57
2022/06/17 07:31:53;;;;;;;11.27;6.82;;;26.90;61.50;;;;;;5014548;28;20030;-52
2022/06/17 07:34:18;;;;;;;10.90;7.07;;;27.70;61.00;;;;;;5014721;28;20033;-54
2022/06/17 07:42:12;;;;;;;11.05;5.80;;;29.70;54.30;;;;;;5014325;28;20033;-52
2022/06/17 07:44:38;;;;;;;11.48;6.63;;;30.40;50.40;;;;;;5014598;28;20030;-56
2022/06/17 07:47:05;;;;;;;7.53;5.75;;;30.60;48.20;;;;;;5014169;28;20026;-54
2022/06/17 07:49:31;;;;;;;9.57;5.60;;;30.60;51.90;;;;;;5014673;28;20038;-51
2022/06/17 07:51:57;;;;;;;8.55;5.57;;;30.90;50.90;;;;;;5014343;28;20540;-55
2022/06/17 07:54:22;;;;;;;8.50;5.40;;;30.70;50.90;;;;;;5014141;28;20030;-57
2022/06/17 07:56:48;;;;;;;9.48;5.28;;;30.50;51.30;;;;;;5014292;28;20040;-48
2022/06/17 07:59:13;;;;;;;7.70;4.57;;;30.40;49.40;;;;;;5014169;28;20025;-58
2022/06/17 08:01:39;;;;;;;6.57;4.72;;;30.10;51.60;;;;;;5013713;28;20022;-50
2022/06/17 08:04:05;;;;;;;8.98;5.53;;;30.40;52.00;;;;;;5013867;28;20026;-51
2022/06/17 08:06:31;;;;;;;12.75;5.53;;;31.00;50.60;;;;;;5013940;28;20429;-49
2022/06/17 08:08:57;;;;;;;7.20;5.47;;;31.60;49.70;;;;;;5013988;28;20155;-58
2022/06/17 08:11:24;;;;;;;9.00;5.63;;;31.60;48.00;;;;;;5013829;28;20049;-51
2022/06/17 08:13:49;;;;;;;10.05;5.40;;;31.60;46.80;;;;;;5013116;28;20034;-50
2022/06/17 08:16:15;;;;;;;9.55;5.13;;;31.70;46.50;;;;;;5011998;28;20025;-52
2022/06/17 08:18:42;;;;;;;7.22;4.65;;;32.10;46.50;;;;;;4997385;28;20029;-48
2022/06/17 08:21:09;;;;;;;10.90;5.13;;;32.40;45.90;;;;;;4996150;28;20089;-54
2022/06/17 08:23:35;;;;;;;15.57;5.15;;;32.10;42.90;;;;;;4997378;28;20030;-50
2022/06/17 08:26:00;;;;;;;9.07;4.10;;;32.20;44.60;;;;;;4995119;28;20022;-56
2022/06/17 08:28:26;;;;;;;9.85;4.22;;;32.30;46.20;;;;;;5008644;28;20397;-54
2022/06/17 08:30:55;;;;;;;8.63;4.82;;;32.40;45.20;;;;;;5013223;28;20393;-53
2022/06/17 08:33:27;;;;;;;7.35;4.10;;;32.40;41.50;;;;;;5013627;28;20113;-54
2022/06/17 08:35:56;;;;;;;7.88;4.07;;;32.10;44.70;;;;;;5013153;28;20033;-53
2022/06/17 08:38:29;;;;;;;8.80;4.28;;;31.80;42.60;;;;;;5013099;28;20029;-54
2022/06/17 08:40:55;;;;;;;7.40;3.90;;;31.20;47.50;;;;;;5013147;28;20014;-50
2022/06/17 08:43:39;;;;;;;8.52;3.80;;;30.90;48.50;;;;;;5013211;28;20084;-50
2022/06/17 08:46:14;;;;;;;9.80;4.13;;;30.60;46.80;;;;;;5012972;28;20022;-53
2022/06/17 08:49:01;;;;;;;5.93;4.28;;;30.80;43.20;;;;;;4995957;28;20035;-55
2022/06/17 08:51:44;;;;;;;8.48;3.92;;;30.60;45.70;;;;;;5005233;28;20044;-48
2022/06/17 08:54:29;;;;;;;7.47;4.05;;;30.50;46.30;;;;;;5009712;28;20037;-50
2022/06/17 08:57:16;;;;;;;10.23;4.05;;;31.10;44.10;;;;;;5004473;28;20437;-50
2022/06/17 09:00:05;;;;;;;6.80;4.28;;;31.60;45.70;;;;;;5012790;28;20441;-57
2022/06/17 09:02:40;;;;;;;8.68;4.63;;;31.60;45.20;;;;;;5012894;28;20030;-55
2022/06/17 09:05:15;;;;;;;8.27;4.65;;;31.00;43.00;;;;;;5011242;28;20026;-58
2022/06/17 09:08:03;;;;;;;6.50;3.95;;;30.10;44.80;;;;;;5010671;28;20026;-50
2022/06/17 09:10:33;;;;;;;7.70;4.15;;;29.80;47.90;;;;;;5010649;28;20046;-56
2022/06/17 09:13:02;;;;;;;7.28;4.03;;;30.00;45.90;;;;;;5009526;28;20054;-47
2022/06/17 09:15:32;;;;;;;;;;;30.30;50.00;;;;;;4997822;28;20030;-44
2022/06/17 09:18:16;;;;;;;6.07;4.25;;;30.80;46.20;;;;;;5010851;28;19905;-52
2022/06/17 09:20:44;;;;;;;7.95;4.35;;;30.70;43.70;;;;;;4999907;28;20508;-49
2022/06/17 09:23:15;;;;;;;8.40;4.68;;;30.00;43.10;;;;;;5010927;28;20072;-52
2022/06/17 09:25:43;;;;;;;6.60;5.00;;;29.80;44.50;;;;;;5010745;28;20030;-52
2022/06/17 09:28:24;;;;;;;7.65;4.57;;;29.80;46.90;;;;;;5002312;28;20137;-52
2022/06/17 09:31:08;;;;;;;11.18;4.90;;;29.40;47.70;;;;;;5009873;28;20030;-55
2022/06/17 09:33:39;;;;;;;8.40;4.35;;;29.80;50.70;;;;;;5012226;28;20022;-53
2022/06/17 09:36:19;;;;;;;6.18;4.03;;;30.10;47.10;;;;;;5012097;28;20033;-51
2022/06/17 09:38:52;;;;;;;7.80;4.45;;;30.30;48.10;;;;;;5012232;28;20074;-52
2022/06/17 09:41:32;;;;;;;7.88;4.80;;;30.30;45.90;;;;;;5001263;28;20029;-45
2022/06/17 09:44:07;;;;;;;8.40;4.90;;;30.10;46.00;;;;;;5007783;28;20034;-58
2022/06/17 09:46:35;;;;;;;9.75;4.60;;;30.10;47.40;;;;;;5012149;28;20063;-49
2022/06/17 09:49:10;;;;;;;;;;;30.10;48.50;;;;;;5011634;28;20512;-48
2022/06/17 09:51:43;;;;;;;8.93;4.75;;;30.10;48.70;;;;;;5012055;28;19952;-46
2022/06/17 09:54:23;;;;;;;7.63;5.15;;;30.30;47.40;;;;;;5011917;28;20018;-57
2022/06/17 09:57:14;;;;;;;9.23;5.78;;;30.60;47.80;;;;;;5012081;28;20495;-52
2022/06/17 09:59:50;;;;;;;11.70;5.68;;;30.40;48.10;;;;;;5012001;28;20045;-53
2022/06/17 10:02:29;;;;;;;8.85;5.72;;;30.20;47.90;;;;;;5005576;28;20125;-57
2022/06/17 10:04:55;;;;;;;;;;;30.00;49.70;;;;;;5012195;28;20029;-55
2022/06/17 10:08:07;;;;;;;10.95;7.00;;;30.30;53.30;;;;;;5011777;28;19963;-53
2022/06/17 10:10:51;;;;;;;9.65;6.95;;;30.30;48.70;;;;;;4988662;28;20553;-54
2022/06/17 10:13:42;;;;;;;9.30;6.35;;;30.10;51.10;;;;;;5011692;28;20034;-60
2022/06/17 10:19:37;;;;;;;10.98;7.20;;;30.80;50.40;;;;;;5003105;28;20532;-44
2022/06/17 10:22:09;;;;;;;11.82;6.90;;;30.80;47.80;;;;;;5007223;28;20041;-56
2022/06/17 10:24:56;;;;;;;9.07;6.70;;;30.70;48.90;;;;;;4998118;28;20025;-51
2022/06/17 10:27:32;;;;;;;10.50;6.15;;;30.40;49.40;;;;;;5011401;28;20109;-53
2022/06/17 10:30:11;;;;;;;9.45;5.43;;;30.60;54.10;;;;;;5010995;28;20034;-45
2022/06/17 10:32:41;;;;;;;9.75;5.07;;;30.50;47.60;;;;;;5011307;28;20105;-40
2022/06/17 10:35:38;;;;;;;8.43;4.90;;;30.40;50.60;;;;;;5003826;28;20034;-52
2022/06/17 10:38:07;;;;;;;7.05;4.97;;;30.10;52.30;;;;;;5010196;28;20034;-53
2022/06/17 10:40:37;;;;;;;10.05;4.60;;;30.10;51.90;;;;;;5011037;28;20029;-55
2022/06/17 10:43:13;;;;;;;7.50;4.70;;;29.80;49.80;;;;;;4997994;28;20084;-58
2022/06/17 10:45:39;;;;;;;6.88;4.25;;;29.70;49.80;;;;;;5011327;28;20026;-43
2022/06/17 10:48:25;;;;;;;8.48;4.25;;;29.70;53.30;;;;;;5011103;28;20034;-55
2022/06/17 10:50:50;;;;;;;8.85;4.28;;;29.80;54.40;;;;;;5010962;28;20173;-55
2022/06/17 10:53:28;;;;;;;8.93;4.20;;;29.70;52.50;;;;;;5011024;28;20389;-47
2022/06/17 10:55:57;;;;;;;9.30;5.05;;;29.60;55.30;;;;;;5011246;28;20026;-55
2022/06/17 10:58:27;;;;;;;7.75;4.40;;;29.30;52.80;;;;;;4993634;28;20500;-47
2022/06/17 11:00:55;;;;;;;7.13;4.55;;;29.30;56.30;;;;;;5012944;28;20026;-46
2022/06/17 11:03:25;;;;;;;6.87;4.30;;;29.70;55.10;;;;;;5014956;28;20022;-55
2022/06/17 11:06:13;;;;;;;6.43;4.32;;;30.10;52.70;;;;;;5015353;28;20061;-56
2022/06/17 11:08:58;;;;;;;6.57;4.25;;;30.20;51.80;;;;;;5007035;28;20064;-53
2022/06/17 11:12:03;;;;;;;7.35;3.95;;;30.10;53.30;;;;;;5014662;28;20049;-43
2022/06/17 11:14:29;;;;;;;5.55;3.83;;;30.40;54.20;;;;;;5007242;28;20041;-53
2022/06/17 11:16:55;;;;;;;6.55;4.28;;;30.40;50.70;;;;;;5014448;28;20018;-47
2022/06/17 11:19:24;;;;;;;7.75;4.00;;;30.60;52.50;;;;;;5013366;28;20563;-57
2022/06/17 11:21:53;;;;;;;6.25;3.80;;;31.00;53.50;;;;;;5014749;28;20030;-42
2022/06/17 11:24:25;;;;;;;8.73;3.58;;;31.30;52.40;;;;;;5014794;28;20030;-41
2022/06/17 11:27:24;;;;;;;9.00;3.70;;;31.60;51.80;;;;;;5014589;28;20068;-42
2022/06/17 11:29:52;;;;;;;8.95;3.17;;;31.70;50.20;;;;;;5007026;28;20041;-41
2022/06/17 11:32:21;;;;;;;6.43;3.00;;;32.00;51.20;;;;;;5014670;28;20489;-42
2022/06/17 11:34:47;;;;;;;;;;;32.30;49.70;;;;;;5006537;28;20060;-41
2022/06/17 11:37:19;;;;;;;8.10;3.10;;;32.30;48.00;;;;;;5014313;28;19912;-41
2022/06/17 11:39:45;;;;;;;7.60;2.60;;;32.40;46.00;;;;;;5014394;28;20029;-41
2022/06/17 11:42:20;;;;;;;5.88;2.70;;;32.40;46.50;;;;;;5014277;28;20407;-42
2022/06/17 11:44:55;;;;;;;6.65;2.60;;;32.40;45.00;;;;;;5013904;28;20029;-51
2022/06/17 11:47:24;;;;;;;5.40;2.42;;;32.30;47.60;;;;;;5013056;28;20256;-44
2022/06/17 11:49:53;;;;;;;8.90;2.60;;;32.20;44.60;;;;;;5014162;28;20127;-50
2022/06/17 11:52:27;;;;;;;;;;;31.90;41.10;;;;;;5014493;28;20620;-50
2022/06/17 11:54:54;;;;;;;7.05;2.88;;;32.00;43.30;;;;;;5014267;28;19905;-58
2022/06/17 11:57:29;;;;;;;5.95;2.63;;;31.70;42.50;;;;;;5014118;28;20033;-44
2022/06/17 11:59:57;;;;;;;5.28;2.85;;;31.70;42.40;;;;;;5014281;28;20029;-57
2022/06/17 12:02:24;;;;;;;6.82;2.90;;;31.70;41.90;;;;;;5014120;28;20022;-44
2022/06/17 12:05:00;;;;;;;5.45;2.45;;;31.60;44.40;;;;;;5011523;28;20041;-51
2022/06/17 12:07:58;;;;;;;7.70;2.85;;;31.70;44.80;;;;;;5007850;28;20104;-56
2022/06/17 12:10:31;;;;;;;6.78;2.60;;;31.70;48.10;;;;;;5004369;28;20058;-58
2022/06/17 12:13:52;;;;;;;5.82;2.70;;;31.70;45.30;;;;;;4995739;28;20026;-56
2022/06/17 12:16:22;;;;;;;5.05;2.53;;;31.70;45.50;;;;;;4983789;28;20125;-52
2022/06/17 12:18:58;;;;;;;6.78;2.80;;;31.10;44.00;;;;;;4997043;28;20478;-56
2022/06/17 12:21:33;;;;;;;4.28;2.70;;;31.40;49.30;;;;;;5008292;28;20099;-59
2022/06/17 12:24:08;;;;;;;5.22;2.70;;;31.70;47.10;;;;;;5005668;28;20049;-60
2022/06/17 12:27:06;;;;;;;6.55;2.80;;;31.60;43.10;;;;;;4993283;28;20057;-57
2022/06/17 12:29:52;;;;;;;;;;;31.30;45.50;;;;;;5003409;28;20105;-55
2022/06/17 12:32:28;;;;;;;6.30;2.70;;;31.10;45.10;;;;;;4991150;28;19973;-52
2022/06/17 12:35:02;;;;;;;3.92;2.30;;;31.40;47.90;;;;;;5007123;28;20029;-53
2022/06/17 12:37:44;;;;;;;4.38;2.38;;;31.50;45.40;;;;;;5012758;28;20084;-59
2022/06/17 12:40:18;;;;;;;4.57;2.50;;;31.70;45.20;;;;;;5005116;28;20420;-55
2022/06/17 12:42:51;;;;;;;9.40;2.65;;;31.70;43.70;;;;;;5006729;28;20037;-60
2022/06/17 12:46:01;;;;;;;7.72;2.60;;;31.20;43.70;;;;;;5010779;28;20101;-58
2022/06/17 12:48:33;;;;;;;5.55;2.65;;;30.90;42.60;;;;;;4986346;28;20531;-48
2022/06/17 12:54:18;;;;;;;12.65;2.92;;;30.00;45.60;;;;;;5013115;28;20427;-54
2022/06/17 12:57:16;;;;;;;7.38;2.65;;;29.90;47.40;;;;;;5012952;28;20114;-57
2022/06/17 12:59:54;;;;;;;8.02;3.10;;;29.70;46.00;;;;;;5011621;28;20029;-60
2022/06/17 13:02:45;;;;;;;4.82;2.47;;;29.60;49.20;;;;;;5002855;28;20025;-53
2022/06/17 13:05:36;;;;;;;7.07;2.95;;;29.70;48.40;;;;;;4987993;28;20088;-55
2022/06/17 13:08:44;;;;;;;8.32;2.80;;;30.10;48.70;;;;;;5004236;28;20042;-50
2022/06/17 13:11:23;;;;;;;;;;;30.10;45.00;;;;;;5006259;28;20133;-51
2022/06/17 13:14:19;;;;;;;5.05;2.80;;;29.90;47.50;;;;;;5012699;28;19909;-56
2022/06/17 13:16:48;;;;;;;4.70;2.65;;;30.00;47.00;;;;;;5012726;28;20038;-49
2022/06/17 13:19:48;;;;;;;7.68;3.13;;;29.80;48.20;;;;;;5007665;28;20028;-48
2022/06/17 13:22:43;;;;;;;5.90;2.90;;;29.70;47.90;;;;;;5012229;28;20040;-54
2022/06/17 13:25:12;;;;;;;5.20;2.60;;;29.80;48.20;;;;;;5009212;28;20013;-57
2022/06/17 13:27:52;;;;;;;9.13;3.30;;;30.00;48.60;;;;;;5003131;28;20049;-54
2022/06/17 13:30:23;;;;;;;6.00;2.80;;;30.10;49.10;;;;;;5008579;28;20026;-44